createdAt,value
2018-08-12T00:00:02.484Z,16.30
2018-08-12T00:02:30.553Z,16.40
2018-08-12T00:04:58.688Z,16.40
2018-08-12T00:07:28.541Z,16.40
2018-08-12T00:09:56.940Z,16.40
2018-08-12T00:12:25.141Z,16.40
2018-08-12T00:14:53.470Z,16.30
2018-08-12T00:17:21.773Z,16.30
2018-08-12T00:19:50.129Z,16.30
2018-08-12T00:22:18.283Z,16.30
2018-08-12T00:24:46.368Z,16.30
2018-08-12T00:27:14.463Z,16.20
2018-08-12T00:29:42.534Z,16.20
2018-08-12T00:32:10.606Z,16.10
2018-08-12T00:34:38.685Z,16.10
2018-08-12T00:37:07.686Z,15.90
2018-08-12T00:39:35.751Z,16.00
2018-08-12T00:42:03.891Z,16.00
2018-08-12T00:44:31.972Z,16.10
2018-08-12T00:47:00.101Z,16.10
2018-08-12T00:49:28.185Z,16.10
2018-08-12T00:51:56.360Z,16.10
2018-08-12T00:54:24.512Z,16.00
2018-08-12T00:56:52.618Z,15.90
2018-08-12T00:59:20.688Z,15.90
2018-08-12T01:01:48.744Z,15.90
2018-08-12T01:04:16.788Z,15.80
2018-08-12T01:06:44.965Z,15.80
2018-08-12T01:09:13.814Z,15.80
2018-08-12T01:11:42.100Z,15.70
2018-08-12T01:14:10.400Z,15.80
2018-08-12T01:16:38.475Z,15.80
2018-08-12T01:19:06.574Z,15.70
2018-08-12T01:21:34.865Z,15.70
2018-08-12T01:24:03.007Z,15.60
2018-08-12T01:26:31.062Z,15.60
2018-08-12T01:28:59.166Z,15.60
2018-08-12T01:31:27.237Z,15.50
2018-08-12T01:33:55.332Z,15.60
2018-08-12T01:36:23.404Z,15.70
2018-08-12T01:38:51.472Z,15.80
2018-08-12T01:41:19.592Z,15.70
2018-08-12T01:43:47.661Z,15.70
2018-08-12T01:46:15.872Z,15.60
2018-08-12T01:48:43.945Z,15.60
2018-08-12T01:51:12.024Z,15.60
2018-08-12T01:53:40.114Z,15.60
2018-08-12T01:56:08.658Z,15.60
2018-08-12T01:58:36.742Z,15.60
2018-08-12T02:01:04.853Z,15.60
2018-08-12T02:03:32.937Z,15.60
2018-08-12T02:06:01.028Z,15.60
2018-08-12T02:08:29.096Z,15.60
2018-08-12T02:10:57.177Z,15.50
2018-08-12T02:13:25.237Z,15.50
2018-08-12T02:15:53.317Z,15.50
2018-08-12T02:18:21.380Z,15.50
2018-08-12T02:20:49.479Z,15.60
2018-08-12T02:23:17.541Z,15.60
2018-08-12T02:25:45.628Z,15.60
2018-08-12T02:28:13.685Z,15.60
2018-08-12T02:30:41.737Z,15.60
2018-08-12T02:33:09.842Z,15.60
2018-08-12T02:35:37.942Z,15.40
2018-08-12T02:38:06.035Z,15.50
2018-08-12T02:40:34.133Z,15.40
2018-08-12T02:43:02.220Z,15.40
2018-08-12T02:45:30.300Z,15.40
2018-08-12T02:47:58.414Z,15.30
2018-08-12T02:50:26.512Z,15.40
2018-08-12T02:52:54.599Z,15.40
2018-08-12T02:55:22.668Z,15.30
2018-08-12T02:57:50.719Z,15.20
2018-08-12T03:00:18.788Z,15.20
2018-08-12T03:02:46.867Z,15.20
2018-08-12T03:05:15.932Z,15.20
2018-08-12T03:07:44.070Z,15.20
2018-08-12T03:10:12.166Z,15.20
2018-08-12T03:12:40.271Z,15.20
2018-08-12T03:17:58.949Z,15.00
2018-08-12T03:20:27.042Z,15.20
2018-08-12T03:22:55.129Z,15.10
2018-08-12T03:25:23.190Z,15.10
2018-08-12T03:27:51.286Z,15.20
2018-08-12T03:30:19.404Z,15.20
2018-08-12T03:32:47.433Z,15.20
2018-08-12T03:35:15.498Z,15.20
2018-08-12T03:37:43.555Z,15.20
2018-08-12T03:40:13.348Z,15.20
2018-08-12T03:42:41.934Z,15.10
2018-08-12T03:45:10.213Z,15.00
2018-08-12T03:47:38.483Z,14.80
2018-08-12T03:50:07.304Z,14.90
2018-08-12T03:52:35.374Z,14.90
2018-08-12T03:55:03.754Z,14.90
2018-08-12T03:57:31.818Z,14.90
2018-08-12T03:59:59.884Z,15.00
2018-08-12T04:02:28.991Z,14.90
2018-08-12T04:04:57.129Z,15.00
2018-08-12T04:07:25.197Z,14.90
2018-08-12T04:09:53.268Z,14.90
2018-08-12T04:12:21.649Z,15.00
2018-08-12T04:14:49.753Z,15.00
2018-08-12T04:17:17.832Z,15.00
2018-08-12T04:19:45.889Z,14.90
2018-08-12T04:22:14.012Z,15.00
2018-08-12T04:24:42.232Z,14.90
2018-08-12T04:27:10.329Z,14.80
2018-08-12T04:29:38.401Z,14.80
2018-08-12T04:32:06.535Z,14.80
2018-08-12T04:34:34.619Z,14.90
2018-08-12T04:37:02.693Z,14.90
2018-08-12T04:39:30.761Z,14.90
2018-08-12T04:41:58.824Z,14.90
2018-08-12T04:44:27.421Z,15.00
2018-08-12T04:46:55.499Z,15.10
2018-08-12T04:49:23.576Z,15.10
2018-08-12T04:51:51.653Z,15.20
2018-08-12T04:54:19.712Z,15.30
2018-08-12T04:56:47.820Z,15.30
2018-08-12T04:59:15.868Z,15.30
2018-08-12T05:01:43.928Z,15.40
2018-08-12T05:04:11.986Z,15.50
2018-08-12T05:06:40.065Z,15.60
2018-08-12T05:09:10.288Z,15.70
2018-08-12T05:11:38.576Z,15.60
2018-08-12T05:16:41.170Z,15.70
2018-08-12T05:19:09.277Z,15.70
2018-08-12T05:21:37.344Z,15.80
2018-08-12T05:24:05.412Z,15.70
2018-08-12T05:26:33.458Z,15.80
2018-08-12T05:29:01.521Z,15.90
2018-08-12T05:31:29.632Z,16.00
2018-08-12T05:33:57.721Z,16.10
2018-08-12T05:36:25.775Z,16.10
2018-08-12T05:38:53.845Z,16.10
2018-08-12T05:41:21.907Z,16.00
2018-08-12T05:43:50.014Z,16.10
2018-08-12T05:46:18.092Z,16.10
2018-08-12T05:48:46.252Z,16.20
2018-08-12T05:51:14.406Z,16.20
2018-08-12T05:53:43.244Z,16.30
2018-08-12T05:56:11.324Z,16.40
2018-08-12T05:58:39.414Z,16.50
2018-08-12T06:01:07.480Z,16.50
2018-08-12T06:03:35.575Z,16.50
2018-08-12T06:06:03.676Z,16.60
2018-08-12T06:08:31.955Z,16.70
2018-08-12T06:11:00.097Z,16.80
2018-08-12T06:13:28.145Z,16.80
2018-08-12T06:15:56.187Z,16.90
2018-08-12T06:18:24.264Z,17.00
2018-08-12T06:20:52.372Z,17.10
2018-08-12T06:23:20.428Z,17.10
2018-08-12T06:25:48.536Z,17.10
2018-08-12T06:28:16.600Z,17.20
2018-08-12T06:30:44.673Z,17.30
2018-08-12T06:33:12.765Z,17.30
2018-08-12T06:35:40.869Z,17.40
2018-08-12T06:38:09.018Z,17.50
2018-08-12T06:40:37.126Z,17.60
2018-08-12T06:43:05.200Z,17.70
2018-08-12T06:45:33.275Z,17.80
2018-08-12T06:48:01.339Z,17.80
2018-08-12T06:50:29.417Z,17.90
2018-08-12T06:52:57.480Z,18.00
2018-08-12T06:55:25.951Z,18.10
2018-08-12T06:57:54.082Z,18.20
2018-08-12T07:00:22.169Z,18.30
2018-08-12T07:02:50.252Z,18.50
2018-08-12T07:05:18.293Z,18.50
2018-08-12T07:07:46.328Z,18.70
2018-08-12T07:10:15.254Z,18.80
2018-08-12T07:12:43.316Z,18.90
2018-08-12T07:15:15.739Z,19.00
2018-08-12T07:17:45.495Z,19.20
2018-08-12T07:20:14.085Z,19.30
2018-08-12T07:22:42.188Z,19.50
2018-08-12T07:25:11.549Z,19.60
2018-08-12T07:27:40.794Z,19.70
2018-08-12T07:30:10.867Z,19.90
2018-08-12T07:32:38.968Z,20.00
2018-08-12T07:35:08.021Z,20.20
2018-08-12T07:37:36.114Z,20.30
2018-08-12T07:40:13.405Z,20.40
2018-08-12T07:42:41.536Z,20.50
2018-08-12T07:45:11.284Z,20.50
2018-08-12T07:47:39.476Z,20.80
2018-08-12T07:50:08.818Z,20.90
2018-08-12T07:52:36.941Z,21.20
2018-08-12T07:55:06.192Z,21.20
2018-08-12T07:57:34.670Z,21.40
2018-08-12T08:00:04.436Z,21.70
2018-08-12T08:02:32.758Z,21.80
2018-08-12T08:05:00.842Z,22.10
2018-08-12T08:07:28.956Z,22.20
2018-08-12T08:09:57.115Z,22.50
2018-08-12T08:12:25.379Z,22.50
2018-08-12T08:14:53.431Z,22.70
2018-08-12T08:17:21.503Z,22.80
2018-08-12T08:19:49.707Z,23.00
2018-08-12T08:22:17.854Z,23.30
2018-08-12T08:24:45.949Z,23.30
2018-08-12T08:27:14.302Z,23.30
2018-08-12T08:29:42.437Z,23.40
2018-08-12T08:32:10.547Z,23.50
2018-08-12T08:34:38.629Z,23.50
2018-08-12T08:37:06.761Z,23.70
2018-08-12T08:39:34.875Z,24.10
2018-08-12T08:42:03.106Z,24.10
2018-08-12T08:44:31.201Z,24.30
2018-08-12T08:46:59.317Z,24.30
2018-08-12T08:49:27.375Z,24.60
2018-08-12T08:51:55.466Z,24.90
2018-08-12T08:54:23.571Z,25.20
2018-08-12T08:56:51.746Z,25.20
2018-08-12T08:59:19.810Z,25.20
2018-08-12T09:01:47.926Z,25.30
2018-08-12T09:04:16.042Z,25.30
2018-08-12T09:06:44.168Z,25.50
2018-08-12T09:09:15.154Z,25.70
2018-08-12T09:11:43.552Z,26.00
2018-08-12T09:14:12.053Z,26.10
2018-08-12T09:16:40.426Z,26.50
2018-08-12T09:19:08.585Z,26.80
2018-08-12T09:21:36.894Z,27.10
2018-08-12T09:24:05.832Z,27.70
2018-08-12T09:26:33.869Z,28.80
2018-08-12T09:29:02.192Z,29.50
2018-08-12T09:31:30.617Z,30.50
2018-08-12T09:33:59.005Z,30.30
2018-08-12T09:36:27.205Z,30.80
2018-08-12T09:38:55.561Z,31.40
2018-08-12T09:41:23.841Z,31.90
2018-08-12T09:47:40.229Z,32.00
2018-08-12T09:50:10.252Z,32.40
2018-08-12T09:52:39.031Z,34.00
2018-08-12T09:55:08.124Z,34.20
2018-08-12T09:57:36.721Z,33.70
2018-08-12T10:00:08.733Z,33.80
2018-08-12T10:02:37.082Z,33.60
2018-08-12T10:05:12.184Z,33.80
2018-08-12T10:07:40.319Z,32.80
2018-08-12T10:10:34.843Z,32.80
2018-08-12T10:13:14.158Z,33.80
2018-08-12T10:15:43.360Z,33.90
2018-08-12T10:21:23.310Z,34.70
2018-08-12T10:23:54.174Z,35.60
2018-08-12T10:26:22.677Z,35.70
2018-08-12T10:28:51.767Z,35.70
2018-08-12T10:31:19.858Z,35.70
2018-08-12T10:33:49.091Z,35.90
2018-08-12T10:36:18.095Z,36.40
2018-08-12T10:38:46.169Z,36.30
2018-08-12T10:41:21.938Z,36.70
2018-08-12T10:43:51.170Z,35.90
2018-08-12T10:46:19.225Z,34.90
2018-08-12T10:48:48.184Z,35.10
2018-08-12T10:51:16.661Z,35.00
2018-08-12T10:53:44.717Z,35.70
2018-08-12T10:56:12.936Z,35.50
2018-08-12T10:58:41.686Z,35.40
2018-08-12T11:01:09.741Z,34.90
2018-08-12T11:03:37.806Z,35.40
2018-08-12T11:06:05.898Z,36.50
2018-08-12T11:08:33.994Z,35.80
2018-08-12T11:11:02.097Z,36.00
2018-08-12T11:13:30.177Z,35.80
2018-08-12T11:15:58.229Z,36.10
2018-08-12T11:18:26.310Z,36.70
2018-08-12T11:20:54.392Z,36.60
2018-08-12T11:23:22.477Z,37.10
2018-08-12T11:25:50.551Z,37.50
2018-08-12T11:28:18.658Z,38.00
2018-08-12T11:30:46.732Z,38.10
2018-08-12T11:33:14.881Z,38.10
2018-08-12T11:35:42.937Z,37.20
2018-08-12T11:38:11.003Z,37.20
2018-08-12T11:40:39.078Z,38.10
2018-08-12T11:43:07.359Z,38.10
2018-08-12T11:45:35.516Z,37.50
2018-08-12T11:48:03.584Z,37.30
2018-08-12T11:50:31.667Z,37.90
2018-08-12T11:52:59.778Z,38.20
2018-08-12T11:55:27.853Z,38.10
2018-08-12T11:57:55.965Z,37.90
2018-08-12T12:00:24.167Z,39.20
2018-08-12T12:02:52.816Z,38.60
2018-08-12T12:05:21.105Z,37.90
2018-08-12T12:07:49.178Z,38.10
2018-08-12T12:10:18.981Z,38.70
2018-08-12T12:12:48.204Z,38.70
2018-08-12T12:15:16.796Z,38.50
2018-08-12T12:17:45.245Z,38.50
2018-08-12T12:20:14.142Z,38.50
2018-08-12T12:22:42.845Z,38.50
2018-08-12T12:25:12.247Z,38.70
2018-08-12T12:27:40.346Z,38.00
2018-08-12T12:30:10.753Z,38.50
2018-08-12T12:32:38.849Z,39.30
2018-08-12T12:35:07.087Z,39.30
2018-08-12T12:37:35.188Z,39.10
2018-08-12T12:40:04.093Z,39.00
2018-08-12T12:42:32.136Z,38.90
2018-08-12T12:45:00.210Z,38.70
2018-08-12T12:47:28.352Z,39.30
2018-08-12T12:49:56.422Z,39.80
2018-08-12T12:52:24.526Z,39.40
2018-08-12T12:54:52.589Z,38.90
2018-08-12T12:57:20.658Z,39.00
2018-08-12T12:59:48.726Z,39.30
2018-08-12T13:02:16.882Z,38.70
2018-08-12T13:04:44.984Z,38.00
2018-08-12T13:07:13.111Z,38.70
2018-08-12T13:09:41.174Z,38.40
2018-08-12T13:12:09.235Z,38.40
2018-08-12T13:14:37.333Z,38.50
2018-08-12T13:17:05.455Z,38.50
2018-08-12T13:19:33.531Z,38.00
2018-08-12T13:22:01.602Z,37.80
2018-08-12T13:24:29.881Z,36.60
2018-08-12T13:26:58.023Z,36.40
2018-08-12T13:29:26.179Z,35.00
2018-08-12T13:31:54.238Z,34.20
2018-08-12T13:34:22.301Z,33.80
2018-08-12T13:36:50.373Z,33.10
2018-08-12T13:39:18.432Z,32.80
2018-08-12T13:41:46.496Z,32.60
2018-08-12T13:44:14.624Z,32.50
2018-08-12T13:46:42.710Z,32.40
2018-08-12T13:49:10.891Z,32.20
2018-08-12T13:51:38.914Z,32.20
2018-08-12T13:54:06.984Z,32.20
2018-08-12T13:56:35.083Z,32.20
2018-08-12T13:59:03.527Z,32.20
2018-08-12T14:01:31.755Z,32.00
2018-08-12T14:03:59.803Z,32.00
2018-08-12T14:06:28.028Z,31.80
2018-08-12T14:08:56.188Z,31.70
2018-08-12T14:11:24.284Z,31.80
2018-08-12T14:13:52.402Z,31.80
2018-08-12T14:16:20.481Z,31.90
2018-08-12T14:18:48.605Z,31.70
2018-08-12T14:21:16.703Z,31.60
2018-08-12T14:23:44.792Z,31.50
2018-08-12T14:26:12.873Z,31.50
2018-08-12T14:28:40.961Z,31.60
2018-08-12T14:31:09.585Z,31.70
2018-08-12T14:33:37.646Z,31.60
2018-08-12T14:36:05.713Z,31.30
2018-08-12T14:38:33.798Z,31.00
2018-08-12T14:41:01.897Z,30.90
2018-08-12T14:43:30.031Z,31.10
2018-08-12T14:45:58.108Z,31.10
2018-08-12T14:48:26.210Z,31.20
2018-08-12T14:50:54.297Z,31.30
2018-08-12T14:53:22.391Z,31.30
2018-08-12T14:55:50.490Z,31.30
2018-08-12T14:58:18.584Z,31.40
2018-08-12T15:00:46.662Z,31.10
2018-08-12T15:03:14.744Z,31.10
2018-08-12T15:05:42.825Z,30.90
2018-08-12T15:08:10.900Z,31.00
2018-08-12T15:10:39.033Z,30.90
2018-08-12T15:13:07.163Z,30.80
2018-08-12T15:15:35.231Z,30.80
2018-08-12T15:18:03.316Z,30.70
2018-08-12T15:20:31.406Z,30.70
2018-08-12T15:22:59.563Z,30.40
2018-08-12T15:25:27.575Z,30.40
2018-08-12T15:27:55.658Z,30.30
2018-08-12T15:30:23.756Z,30.20
2018-08-12T15:32:51.820Z,30.00
2018-08-12T15:35:19.854Z,29.90
2018-08-12T15:37:47.981Z,29.70
2018-08-12T15:40:16.296Z,29.80
2018-08-12T15:42:44.667Z,29.60
2018-08-12T15:45:14.352Z,29.50
2018-08-12T15:47:43.152Z,29.30
2018-08-12T15:50:11.821Z,29.10
2018-08-12T15:52:40.724Z,29.10
2018-08-12T15:55:09.223Z,29.10
2018-08-12T15:57:37.376Z,29.00
2018-08-12T16:00:09.629Z,28.80
2018-08-12T16:02:38.076Z,28.80
2018-08-12T16:05:06.181Z,28.80
2018-08-12T16:07:34.836Z,28.70
2018-08-12T16:10:02.918Z,28.60
2018-08-12T16:12:31.005Z,28.70
2018-08-12T16:14:59.053Z,28.60
2018-08-12T16:17:36.365Z,28.60
2018-08-12T16:20:05.105Z,28.50
2018-08-12T16:22:33.197Z,28.40
2018-08-12T16:25:01.483Z,28.30
2018-08-12T16:27:29.657Z,28.20
2018-08-12T16:29:57.837Z,28.10
2018-08-12T16:32:25.875Z,28.20
2018-08-12T16:34:54.027Z,28.20
2018-08-12T16:37:22.149Z,28.10
2018-08-12T16:39:50.893Z,28.10
2018-08-12T16:42:19.031Z,28.10
2018-08-12T16:44:47.128Z,28.20
2018-08-12T16:47:15.238Z,28.00
2018-08-12T16:49:43.302Z,27.90
2018-08-12T16:52:11.411Z,27.90
2018-08-12T16:54:39.483Z,27.80
2018-08-12T16:57:08.840Z,27.70
2018-08-12T16:59:36.944Z,27.70
2018-08-12T17:02:05.071Z,27.60
2018-08-12T17:04:33.216Z,27.60
2018-08-12T17:07:01.298Z,27.50
2018-08-12T17:09:29.475Z,27.50
2018-08-12T17:11:57.719Z,27.40
2018-08-12T17:14:25.780Z,27.50
2018-08-12T17:16:53.878Z,27.30
2018-08-12T17:19:22.225Z,27.20
2018-08-12T17:21:50.305Z,27.00
2018-08-12T17:24:18.421Z,26.90
2018-08-12T17:26:46.509Z,26.80
2018-08-12T17:29:14.609Z,26.60
2018-08-12T17:31:43.287Z,26.40
2018-08-12T17:34:11.345Z,26.30
2018-08-12T17:36:39.435Z,26.30
2018-08-12T17:39:08.932Z,26.10
2018-08-12T17:41:36.975Z,26.10
2018-08-12T17:44:05.140Z,26.00
2018-08-12T17:46:33.224Z,25.90
2018-08-12T17:49:01.392Z,25.80
2018-08-12T17:51:29.464Z,25.70
2018-08-12T17:53:58.460Z,25.70
2018-08-12T17:56:26.541Z,25.50
2018-08-12T17:58:54.653Z,25.40
2018-08-12T18:01:22.711Z,25.30
2018-08-12T18:03:50.873Z,25.20
2018-08-12T18:06:18.930Z,25.10
2018-08-12T18:08:46.988Z,25.00
2018-08-12T18:11:15.065Z,24.90
2018-08-12T18:13:43.141Z,24.80
2018-08-12T18:16:11.218Z,24.70
2018-08-12T18:18:39.264Z,24.70
2018-08-12T18:21:07.356Z,24.60
2018-08-12T18:23:35.513Z,24.40
2018-08-12T18:26:03.571Z,24.30
2018-08-12T18:28:31.652Z,24.20
2018-08-12T18:30:59.769Z,24.10
2018-08-12T18:33:28.001Z,24.10
2018-08-12T18:35:56.129Z,24.00
2018-08-12T18:38:24.237Z,23.80
2018-08-12T18:40:52.277Z,23.70
2018-08-12T18:43:20.437Z,23.60
2018-08-12T18:45:48.597Z,23.50
2018-08-12T18:48:16.751Z,23.40
2018-08-12T18:50:44.822Z,23.30
2018-08-12T18:53:12.961Z,23.20
2018-08-12T18:55:41.045Z,23.10
2018-08-12T18:58:09.225Z,23.00
2018-08-12T19:00:37.335Z,23.00
2018-08-12T19:03:05.574Z,22.90
2018-08-12T19:05:33.626Z,22.80
2018-08-12T19:08:01.726Z,22.80
2018-08-12T19:10:29.793Z,22.70
2018-08-12T19:12:57.876Z,22.50
2018-08-12T19:15:25.963Z,22.50
2018-08-12T19:17:54.026Z,22.40
2018-08-12T19:20:22.110Z,22.30
2018-08-12T19:22:50.163Z,22.30
2018-08-12T19:25:18.217Z,22.30
2018-08-12T19:27:46.294Z,22.30
2018-08-12T19:30:14.426Z,22.30
2018-08-12T19:32:42.508Z,22.20
2018-08-12T19:35:11.485Z,22.20
2018-08-12T19:37:39.571Z,22.20
2018-08-12T19:40:09.208Z,22.10
2018-08-12T19:42:37.459Z,22.00
2018-08-12T19:45:06.795Z,21.90
2018-08-12T19:47:34.887Z,21.70
2018-08-12T19:50:02.967Z,21.60
2018-08-12T19:52:31.116Z,21.60
2018-08-12T19:54:59.173Z,21.50
2018-08-12T19:57:27.280Z,21.40
2018-08-12T19:59:55.400Z,21.30
2018-08-12T20:02:23.519Z,21.30
2018-08-12T20:04:52.018Z,21.20
2018-08-12T20:07:20.104Z,21.20
2018-08-12T20:09:48.256Z,21.10
2018-08-12T20:12:16.413Z,21.10
2018-08-12T20:14:44.395Z,21.10
2018-08-12T20:17:12.492Z,21.00
2018-08-12T20:19:40.587Z,21.00
2018-08-12T20:22:12.148Z,20.90
2018-08-12T20:24:40.682Z,20.90
2018-08-12T20:27:09.195Z,20.90
2018-08-12T20:29:37.321Z,20.80
2018-08-12T20:32:05.387Z,20.70
2018-08-12T20:34:33.498Z,20.70
2018-08-12T20:37:01.563Z,20.60
2018-08-12T20:39:29.707Z,20.50
2018-08-12T20:41:57.841Z,20.40
2018-08-12T20:44:25.961Z,20.40
2018-08-12T20:46:54.020Z,20.40
2018-08-12T20:49:22.257Z,20.40
2018-08-12T20:51:50.368Z,20.30
2018-08-12T20:54:18.541Z,20.30
2018-08-12T20:56:46.612Z,20.30
2018-08-12T20:59:14.786Z,20.30
2018-08-12T21:01:44.078Z,20.20
2018-08-12T21:04:12.128Z,20.10
2018-08-12T21:06:40.240Z,20.10
2018-08-12T21:09:09.541Z,20.10
2018-08-12T21:11:37.672Z,20.00
2018-08-12T21:14:05.718Z,19.90
2018-08-12T21:16:33.850Z,19.90
2018-08-12T21:19:01.922Z,19.90
2018-08-12T21:21:29.952Z,19.80
2018-08-12T21:23:58.006Z,19.80
2018-08-12T21:26:26.147Z,19.80
2018-08-12T21:28:54.312Z,19.80
2018-08-12T21:31:22.386Z,19.80
2018-08-12T21:33:50.561Z,19.80
2018-08-12T21:36:18.631Z,19.80
2018-08-12T21:38:46.668Z,19.70
2018-08-12T21:41:14.944Z,19.70
2018-08-12T21:43:43.272Z,19.60
2018-08-12T21:46:11.358Z,19.60
2018-08-12T21:48:39.664Z,19.50
2018-08-12T21:51:07.763Z,19.50
2018-08-12T21:53:36.526Z,19.40
2018-08-12T21:56:04.860Z,19.40
2018-08-12T21:58:32.981Z,19.40
2018-08-12T22:01:01.049Z,19.40
2018-08-12T22:03:29.181Z,19.40
2018-08-12T22:05:57.236Z,19.30
2018-08-12T22:08:25.317Z,19.30
2018-08-12T22:10:53.368Z,19.10
2018-08-12T22:13:22.385Z,19.10
2018-08-12T22:15:50.448Z,19.00
2018-08-12T22:18:18.545Z,19.00
2018-08-12T22:20:46.614Z,18.90
2018-08-12T22:23:14.672Z,19.00
2018-08-12T22:25:43.257Z,18.90
2018-08-12T22:28:11.370Z,19.00
2018-08-12T22:30:39.529Z,19.00
2018-08-12T22:33:07.650Z,19.00
2018-08-12T22:35:35.752Z,18.80
2018-08-12T22:38:03.846Z,18.80
2018-08-12T22:40:31.919Z,18.70
2018-08-12T22:42:59.990Z,18.60
2018-08-12T22:45:28.062Z,18.60
2018-08-12T22:47:56.167Z,18.60
2018-08-12T22:50:24.288Z,18.50
2018-08-12T22:52:52.345Z,18.50
2018-08-12T22:55:20.414Z,18.50
2018-08-12T22:57:48.485Z,18.50
2018-08-12T23:00:18.837Z,18.40
2018-08-12T23:02:47.264Z,18.40
2018-08-12T23:05:15.304Z,18.30
2018-08-12T23:07:43.415Z,18.30
2018-08-12T23:10:11.472Z,18.20
2018-08-12T23:12:40.037Z,18.20
2018-08-12T23:15:19.839Z,18.10
2018-08-12T23:17:47.922Z,18.10
2018-08-12T23:20:16.018Z,18.00
2018-08-12T23:22:44.106Z,18.00
2018-08-12T23:25:12.211Z,17.90
2018-08-12T23:27:40.309Z,17.90
2018-08-12T23:30:08.958Z,17.90
2018-08-12T23:32:37.838Z,17.80
2018-08-12T23:35:06.012Z,17.80
2018-08-12T23:37:34.305Z,17.80
2018-08-12T23:40:02.401Z,17.80
2018-08-12T23:42:30.504Z,17.70
2018-08-12T23:44:58.620Z,17.70
2018-08-12T23:47:27.402Z,17.70
2018-08-12T23:49:55.503Z,17.70
2018-08-12T23:52:23.648Z,17.70
2018-08-12T23:54:51.765Z,17.70
2018-08-12T23:57:19.922Z,17.70
2018-08-12T23:59:48.006Z,17.60
